Stewart, Alabama
Current Conditions -  °F | °C
As of 3:53 PM on Monday 20 Oct 2014 (Local Time) from KTCL Reporting Station
Clear Clear  
Wind Chill: 74°   Ceiling: Unl
Heat Index: 74°   Visibility: 10mi
Dew Point: 47°   Wind: 0mph
Humidity: 38%   Direction: NA
Pressure: 30.01"   Gusts: NA
Location:  32.8641°N, 87.6991°W
Report Text: KTCL 202053Z 00000KT 10SM CLR 23/08 A3001 RMK AO2 SLP159 T02330083 56020
Loading
Personal Weather Stations






























Interactive Weather Map
Tropical Storm Tracking
New forecast layout! Learn more

10-Day Weather Forecast

Advertisements
Track Severe Weather on mobile